KHDE/HDE METAR and TAF weather

Enter ICAO airport designator
Station Type Date Time Source
KHDE METAR 2020/01/22 17:55 UTC NOAA

KHDE 221755Z AUTO 21005KT 1/4SM FG OVC002 02/02 A2974 RMK AO2 T00200020 10020 20005


Station Type Date Time Source
KHDE Decoded METAR 2020/01/22 17:55 UTC NOAA

Brewster Field Airport, NE, United States (KHDE) 40-27N 099-20W
Jan 22, 2020 - 12:55 PM EST / 2020.01.22 1755 UTC
Wind: from the SSW (210 degrees) at 6 MPH (5 KT):0
Visibility: 1/4 mile(s):0
Sky conditions: overcast
Weather: fog
Temperature: 35.6 F (2.0 C)
Dew Point: 35.6 F (2.0 C)
Relative Humidity: 100%
Pressure (altimeter): 29.74 in. Hg (1007 hPa)
ob: KHDE 221755Z AUTO 21005KT 1/4SM FG OVC002 02/02 A2974 RMK AO2 T00200020 10020 20005
cycle: 18

Station Type Date Time Source
KHDE TAF UTC NOAA

Error!

Example: see airport list